aviador You're here:

PAMO Decoded Metar

MOUNTAIN VILLAGE in AK, USA
Report Time2018-07-20 19:02:00
UTC Time2018-07-20 20:00:23
Flight Rules vfr VFR
Wind080° at 04 kt
W.Decomp.*RWY 02: 2.8 kt HW 2.9 kt RCW
W.Rank080° ranks 7
Current wind is below 080° avg. (12.5)
Visibility9999 m
Phenomena:N/A
Clouds:N/A
Expected CloudBase > 2,000 ft AGL from Temp-Dew spread
CeilingNone
Temp14°C (ISA -0)
Dew Point09°C (72% RH)
AAT12.4°C
QNH1024 hPa
Density Alt85 ft
Elevation338 ft
Report Wrong Elevation
Raw Report
PAMO 201902Z AUTO 08004KT 10SM CLR 14/09 A3023 RMK AO2 SLP240
T01390094=

Extra information for PAMO:More info

Metar Taf Metar & Taf Last 4 Metars F.Rules Stats Wind Profile Meteogram Temp Stats Airport Information Weather charts Add Link Nearby VenuesMetar ALERT Operation Metar Decoded Social comments

AIRNAV info for PAMO